Time;durP1;ratioP1;P1;durP2;ratioP2;P2;SDS_P1;SDS_P2;PMS_P1;PMS_P2;Temp;Humidity;BMP_temperature;BMP_pressure;BME280_temperature;BME280_humidity;BME280_pressure;Samples;Min_cycle;Max_cycle;Signal;HPM_P1;HPM_P2
2023/10/31 00:01:12;;;;;;;59.90;33.37;;;;;;;;;;5010857;28;20410;-60
2023/10/31 00:03:37;;;;;;;53.60;30.17;;;;;;;;;;5012468;28;20149;-60
2023/10/31 00:06:02;;;;;;;53.60;28.67;;;;;;;;;;5010099;28;20034;-60
2023/10/31 00:08:27;;;;;;;54.38;29.95;;;;;;;;;;5012295;28;20108;-71
2023/10/31 00:10:52;;;;;;;46.20;27.20;;;;;;;;;;5010727;28;20044;-59
2023/10/31 00:13:17;;;;;;;41.30;26.53;;;;;;;;;;5011714;28;20076;-58
2023/10/31 00:15:43;;;;;;;48.17;27.87;;;;;;;;;;5010912;28;20068;-59
2023/10/31 00:18:08;;;;;;;38.83;27.00;;;;;;;;;;5011443;28;20393;-58
2023/10/31 00:20:33;;;;;;;41.97;23.10;;;;;;;;;;5009504;28;20038;-58
2023/10/31 00:22:58;;;;;;;37.10;26.13;;;;;;;;;;5011774;28;20417;-59
2023/10/31 00:25:23;;;;;;;30.83;20.75;;;;;;;;;;5010549;28;20038;-58
2023/10/31 00:27:48;;;;;;;34.58;21.02;;;;;;;;;;5011583;28;20393;-59
2023/10/31 00:30:14;;;;;;;32.83;22.48;;;;;;;;;;5010525;28;20042;-58
2023/10/31 00:32:39;;;;;;;33.47;21.77;;;;;;;;;;5012018;28;20053;-58
2023/10/31 00:35:04;;;;;;;36.08;22.13;;;;;;;;;;5010114;28;20560;-58
2023/10/31 00:37:30;;;;;;;30.58;21.48;;;;;;;;;;5011809;28;20104;-58
2023/10/31 00:39:55;;;;;;;32.00;21.43;;;;;;;;;;5010083;28;20038;-59
2023/10/31 00:42:20;;;;;;;36.07;23.30;;;;;;;;;;5010229;28;20459;-58
2023/10/31 00:44:45;;;;;;;30.17;19.87;;;;;;;;;;5010627;28;20111;-64
2023/10/31 00:47:10;;;;;;;36.23;22.23;;;;;;;;;;5011315;28;20025;-59
2023/10/31 00:49:35;;;;;;;30.48;20.23;;;;;;;;;;5010519;28;20495;-58
2023/10/31 00:52:01;;;;;;;25.20;18.33;;;;;;;;;;5011468;28;20029;-58
2023/10/31 00:54:26;;;;;;;29.73;19.60;;;;;;;;;;5011935;28;20025;-58
2023/10/31 00:56:51;;;;;;;25.77;19.93;;;;;;;;;;5009228;28;20501;-58
2023/10/31 00:59:16;;;;;;;25.93;18.13;;;;;;;;;;5011395;28;21202;-59
2023/10/31 01:01:42;;;;;;;27.02;20.02;;;;;;;;;;5010189;28;20046;-58
2023/10/31 01:04:07;;;;;;;27.15;19.42;;;;;;;;;;5011246;28;20072;-59
2023/10/31 01:06:33;;;;;;;25.25;19.00;;;;;;;;;;5009916;28;20041;-59
2023/10/31 01:08:58;;;;;;;20.47;13.63;;;;;;;;;;5010937;28;20026;-59
2023/10/31 01:11:23;;;;;;;9.93;5.70;;;;;;;;;;5009527;28;20038;-59
2023/10/31 01:13:48;;;;;;;6.03;5.53;;;;;;;;;;5011455;28;20785;-64
2023/10/31 01:16:13;;;;;;;3.45;3.17;;;;;;;;;;5009564;28;20042;-59
2023/10/31 01:18:38;;;;;;;2.50;2.03;;;;;;;;;;5011114;28;20045;-59
2023/10/31 01:21:04;;;;;;;3.57;2.20;;;;;;;;;;5009474;28;20092;-60
2023/10/31 01:23:29;;;;;;;1.80;1.70;;;;;;;;;;5011423;28;20018;-59
2023/10/31 01:25:54;;;;;;;2.80;1.85;;;;;;;;;;5009076;28;20053;-59
2023/10/31 01:28:19;;;;;;;2.50;2.03;;;;;;;;;;5011469;28;20091;-59
2023/10/31 01:30:44;;;;;;;6.07;1.80;;;;;;;;;;5009728;28;21210;-59
2023/10/31 01:33:09;;;;;;;4.40;1.77;;;;;;;;;;5010623;28;20428;-59
2023/10/31 01:35:35;;;;;;;2.33;1.77;;;;;;;;;;5009736;28;20551;-59
2023/10/31 01:38:00;;;;;;;1.98;1.40;;;;;;;;;;5010741;28;20021;-59
2023/10/31 01:40:25;;;;;;;7.10;2.60;;;;;;;;;;5009251;28;20024;-59
2023/10/31 01:42:50;;;;;;;3.23;1.93;;;;;;;;;;5011440;28;20461;-59
2023/10/31 01:45:15;;;;;;;1.97;1.60;;;;;;;;;;5009388;28;20025;-59
2023/10/31 01:47:42;;;;;;;4.00;1.80;;;;;;;;;;5011117;28;20536;-59
2023/10/31 01:50:07;;;;;;;6.57;1.88;;;;;;;;;;5010473;28;20429;-59
2023/10/31 01:52:35;;;;;;;2.35;1.83;;;;;;;;;;5009371;28;20584;-59
2023/10/31 01:55:02;;;;;;;4.10;2.57;;;;;;;;;;5010997;28;20022;-59
2023/10/31 01:57:27;;;;;;;5.75;1.70;;;;;;;;;;5008885;28;20037;-66
2023/10/31 01:59:52;;;;;;;3.70;1.90;;;;;;;;;;5010660;28;20017;-59
2023/10/31 02:02:19;;;;;;;2.65;2.08;;;;;;;;;;5009314;28;21025;-59
2023/10/31 02:04:45;;;;;;;8.55;3.13;;;;;;;;;;5010225;28;20014;-59
2023/10/31 02:07:10;;;;;;;4.55;3.20;;;;;;;;;;5010320;28;20463;-59
2023/10/31 02:09:35;;;;;;;3.78;2.05;;;;;;;;;;5015000;28;20021;-59
2023/10/31 02:12:00;;;;;;;7.93;2.60;;;;;;;;;;5012369;28;20121;-59
2023/10/31 02:14:25;;;;;;;2.70;2.20;;;;;;;;;;5014972;28;20544;-59
2023/10/31 02:16:51;;;;;;;8.07;2.53;;;;;;;;;;5013158;28;20045;-58
2023/10/31 02:19:18;;;;;;;4.63;2.53;;;;;;;;;;5013682;28;20072;-59
2023/10/31 02:21:43;;;;;;;7.65;5.93;;;;;;;;;;5013228;28;20030;-63
2023/10/31 02:24:09;;;;;;;9.85;2.75;;;;;;;;;;5014266;28;20089;-59
2023/10/31 02:26:34;;;;;;;12.07;3.83;;;;;;;;;;5012938;28;20040;-58
2023/10/31 02:29:00;;;;;;;4.63;3.20;;;;;;;;;;5014307;28;20024;-58
2023/10/31 02:31:25;;;;;;;5.15;3.70;;;;;;;;;;5012819;28;20546;-58
2023/10/31 02:33:50;;;;;;;7.22;3.30;;;;;;;;;;5013573;28;20493;-73
2023/10/31 02:36:15;;;;;;;9.50;4.87;;;;;;;;;;5012142;28;20041;-59
2023/10/31 02:38:41;;;;;;;10.83;3.80;;;;;;;;;;5014763;28;20021;-58
2023/10/31 02:41:06;;;;;;;10.67;3.37;;;;;;;;;;5012078;28;20562;-58
2023/10/31 02:43:31;;;;;;;4.97;3.77;;;;;;;;;;5014331;28;20998;-58
2023/10/31 02:45:56;;;;;;;6.03;3.23;;;;;;;;;;5012556;28;20038;-58
2023/10/31 02:48:21;;;;;;;8.57;4.20;;;;;;;;;;5013478;28;20515;-58
2023/10/31 02:50:46;;;;;;;6.43;4.27;;;;;;;;;;5012812;28;20129;-58
2023/10/31 02:53:12;;;;;;;7.03;4.77;;;;;;;;;;5013830;28;20112;-58
2023/10/31 02:55:37;;;;;;;15.13;7.37;;;;;;;;;;5012057;28;20800;-58
2023/10/31 02:58:02;;;;;;;10.93;8.20;;;;;;;;;;5013581;28;20108;-58
2023/10/31 03:00:27;;;;;;;13.10;10.63;;;;;;;;;;5012117;28;20559;-58
2023/10/31 03:02:52;;;;;;;15.97;9.70;;;;;;;;;;5011945;28;20536;-58
2023/10/31 03:05:18;;;;;;;18.90;11.13;;;;;;;;;;5012437;28;20552;-58
2023/10/31 03:07:44;;;;;;;16.53;12.00;;;;;;;;;;5013690;28;20461;-59
2023/10/31 03:10:09;;;;;;;16.90;12.38;;;;;;;;;;5011867;28;20030;-59
2023/10/31 03:12:34;;;;;;;20.55;13.90;;;;;;;;;;5013541;28;20033;-59
2023/10/31 03:14:59;;;;;;;23.13;12.97;;;;;;;;;;5012245;28;20056;-59
2023/10/31 03:17:25;;;;;;;22.98;13.10;;;;;;;;;;5012930;28;20452;-59
2023/10/31 03:19:50;;;;;;;20.45;13.23;;;;;;;;;;5011379;28;20087;-59
2023/10/31 03:22:15;;;;;;;18.10;14.27;;;;;;;;;;5013072;28;20018;-59
2023/10/31 03:24:41;;;;;;;19.63;15.30;;;;;;;;;;5011512;28;20460;-59
2023/10/31 03:27:06;;;;;;;21.90;15.98;;;;;;;;;;5013078;28;20453;-59
2023/10/31 03:29:31;;;;;;;23.98;16.30;;;;;;;;;;5011714;28;20026;-58
2023/10/31 03:31:56;;;;;;;22.73;16.70;;;;;;;;;;5012256;28;20013;-59
2023/10/31 03:34:21;;;;;;;26.50;19.45;;;;;;;;;;5013166;28;20464;-59
2023/10/31 03:36:46;;;;;;;25.33;17.60;;;;;;;;;;5011446;28;20081;-59
2023/10/31 03:39:12;;;;;;;25.48;19.60;;;;;;;;;;5012860;28;20422;-59
2023/10/31 03:41:37;;;;;;;27.90;17.63;;;;;;;;;;5011677;28;20049;-59
2023/10/31 03:44:02;;;;;;;28.60;20.43;;;;;;;;;;5012952;28;20029;-65
2023/10/31 03:46:27;;;;;;;33.17;18.83;;;;;;;;;;5011205;28;20748;-59
2023/10/31 03:48:52;;;;;;;28.87;21.67;;;;;;;;;;5013325;28;20445;-59
2023/10/31 03:51:17;;;;;;;24.60;18.97;;;;;;;;;;5011496;28;20835;-59
2023/10/31 03:53:43;;;;;;;33.60;18.47;;;;;;;;;;5012469;28;20990;-60
2023/10/31 03:56:08;;;;;;;29.37;18.90;;;;;;;;;;5011393;28;20452;-59
2023/10/31 03:58:33;;;;;;;31.57;18.30;;;;;;;;;;5012432;28;20413;-67
2023/10/31 04:00:58;;;;;;;30.65;18.55;;;;;;;;;;5010754;28;20042;-59
2023/10/31 04:03:24;;;;;;;25.67;16.27;;;;;;;;;;5012331;28;20066;-59
2023/10/31 04:05:49;;;;;;;21.57;14.67;;;;;;;;;;5010946;28;20058;-61
2023/10/31 04:08:14;;;;;;;23.10;13.55;;;;;;;;;;5012097;28;20492;-57
2023/10/31 04:10:39;;;;;;;27.27;16.30;;;;;;;;;;5010536;28;20030;-57
2023/10/31 04:13:04;;;;;;;21.10;14.63;;;;;;;;;;5012479;28;20409;-57
2023/10/31 04:15:29;;;;;;;20.08;14.55;;;;;;;;;;5010897;28;20507;-57
2023/10/31 04:17:55;;;;;;;22.13;14.60;;;;;;;;;;5010671;28;20044;-58
2023/10/31 04:20:20;;;;;;;16.88;11.45;;;;;;;;;;5011137;28;20034;-57
2023/10/31 04:22:45;;;;;;;16.63;10.03;;;;;;;;;;5011350;28;20438;-57
2023/10/31 04:25:10;;;;;;;14.68;9.13;;;;;;;;;;5010058;28;20096;-57
2023/10/31 04:27:35;;;;;;;19.27;10.00;;;;;;;;;;5011892;28;20043;-58
2023/10/31 04:30:01;;;;;;;13.60;8.50;;;;;;;;;;5010506;28;20532;-57
2023/10/31 04:32:26;;;;;;;14.93;9.50;;;;;;;;;;5011513;28;20071;-57
2023/10/31 04:34:51;;;;;;;11.00;7.37;;;;;;;;;;5010555;28;20078;-57
2023/10/31 04:37:16;;;;;;;11.75;7.78;;;;;;;;;;5012085;28;20448;-58
2023/10/31 04:39:41;;;;;;;9.18;7.45;;;;;;;;;;5010227;28;20033;-58
2023/10/31 04:42:07;;;;;;;8.97;7.83;;;;;;;;;;5011522;28;20022;-58
2023/10/31 04:44:32;;;;;;;7.47;4.90;;;;;;;;;;5011935;28;20029;-58
2023/10/31 04:46:57;;;;;;;8.45;5.28;;;;;;;;;;5009982;28;20041;-58
2023/10/31 04:49:22;;;;;;;7.50;4.18;;;;;;;;;;5011565;28;20028;-58
2023/10/31 04:51:48;;;;;;;7.40;4.82;;;;;;;;;;5010481;28;20543;-58
2023/10/31 04:54:13;;;;;;;5.53;4.80;;;;;;;;;;5011507;28;20128;-58
2023/10/31 04:56:38;;;;;;;5.90;4.47;;;;;;;;;;5010685;28;20052;-58
2023/10/31 04:59:03;;;;;;;9.50;5.18;;;;;;;;;;5011604;28;20026;-58
2023/10/31 05:01:29;;;;;;;5.90;4.75;;;;;;;;;;5009995;28;20038;-58
2023/10/31 05:03:54;;;;;;;4.43;3.83;;;;;;;;;;5011646;28;20021;-70
2023/10/31 05:06:20;;;;;;;7.47;3.20;;;;;;;;;;5010396;28;20038;-58
2023/10/31 05:08:45;;;;;;;6.75;4.68;;;;;;;;;;5011646;28;20417;-58
2023/10/31 05:11:11;;;;;;;6.63;4.40;;;;;;;;;;5009926;28;20041;-58
2023/10/31 05:13:36;;;;;;;6.85;4.93;;;;;;;;;;5011178;28;20416;-58
2023/10/31 05:16:01;;;;;;;6.07;3.97;;;;;;;;;;5009769;28;20116;-58
2023/10/31 05:18:26;;;;;;;12.90;7.03;;;;;;;;;;5011433;28;20025;-58
2023/10/31 05:20:51;;;;;;;6.55;5.95;;;;;;;;;;5010106;28;20463;-57
2023/10/31 05:23:17;;;;;;;8.17;6.83;;;;;;;;;;5010894;28;20057;-57
2023/10/31 05:25:42;;;;;;;7.07;6.47;;;;;;;;;;5010284;28;20030;-57
2023/10/31 05:28:07;;;;;;;10.15;7.68;;;;;;;;;;5010980;28;20444;-57
2023/10/31 05:30:32;;;;;;;11.73;7.63;;;;;;;;;;5009712;28;20542;-58
2023/10/31 05:32:57;;;;;;;10.20;8.68;;;;;;;;;;5010885;28;20421;-57
2023/10/31 05:35:22;;;;;;;14.25;9.63;;;;;;;;;;5009780;28;20614;-57
2023/10/31 05:37:48;;;;;;;11.85;9.38;;;;;;;;;;5010881;28;20026;-57
2023/10/31 05:40:14;;;;;;;12.13;8.93;;;;;;;;;;5009583;28;20026;-56
2023/10/31 05:42:39;;;;;;;13.52;12.13;;;;;;;;;;5010597;28;20420;-56
2023/10/31 05:45:05;;;;;;;12.73;10.35;;;;;;;;;;5009245;28;20515;-56
2023/10/31 05:47:30;;;;;;;12.68;10.32;;;;;;;;;;5011053;28;20112;-57
2023/10/31 05:49:55;;;;;;;11.20;9.67;;;;;;;;;;5009610;28;20041;-56
2023/10/31 05:52:20;;;;;;;12.63;11.25;;;;;;;;;;5010542;28;20417;-56
2023/10/31 05:54:45;;;;;;;14.27;9.77;;;;;;;;;;5009841;28;20030;-56
2023/10/31 05:57:11;;;;;;;15.00;10.33;;;;;;;;;;5011214;28;20474;-56
2023/10/31 05:59:36;;;;;;;15.95;11.45;;;;;;;;;;5009132;28;20460;-56
2023/10/31 06:02:01;;;;;;;14.60;10.00;;;;;;;;;;5009323;28;20493;-56
2023/10/31 06:04:26;;;;;;;12.87;9.07;;;;;;;;;;5009815;28;20490;-56
2023/10/31 06:06:52;;;;;;;13.20;8.45;;;;;;;;;;5012022;28;20519;-57
2023/10/31 06:09:17;;;;;;;13.33;9.43;;;;;;;;;;5011201;28;20396;-59
2023/10/31 06:11:43;;;;;;;8.68;7.50;;;;;;;;;;5009878;28;20069;-57
2023/10/31 06:14:09;;;;;;;11.13;9.85;;;;;;;;;;5009615;28;20388;-56
2023/10/31 06:16:39;;;;;;;14.20;9.33;;;;;;;;;;5008674;28;20120;-56
2023/10/31 06:19:04;;;;;;;26.15;10.52;;;;;;;;;;5010730;28;20034;-56
2023/10/31 06:21:29;;;;;;;12.75;8.55;;;;;;;;;;5007043;28;20398;-57
2023/10/31 06:23:55;;;;;;;13.00;9.70;;;;;;;;;;5009673;28;20050;-57
2023/10/31 06:26:20;;;;;;;16.30;9.07;;;;;;;;;;5008236;28;20485;-57
2023/10/31 06:28:45;;;;;;;11.25;8.70;;;;;;;;;;5009719;28;20033;-57
2023/10/31 06:31:10;;;;;;;12.07;8.17;;;;;;;;;;5007752;28;20038;-57
2023/10/31 06:33:35;;;;;;;14.37;8.07;;;;;;;;;;5009687;28;20025;-56
2023/10/31 06:36:01;;;;;;;10.93;8.80;;;;;;;;;;5008176;28;21080;-56
2023/10/31 06:38:26;;;;;;;11.80;7.47;;;;;;;;;;5010401;28;20436;-56
2023/10/31 06:40:52;;;;;;;13.82;8.52;;;;;;;;;;5009158;28;20041;-56
2023/10/31 06:43:17;;;;;;;12.35;7.25;;;;;;;;;;5009066;28;20484;-57
2023/10/31 06:45:43;;;;;;;11.90;7.57;;;;;;;;;;5008478;28;20041;-56
2023/10/31 06:48:09;;;;;;;18.77;9.10;;;;;;;;;;5009551;28;20381;-56
2023/10/31 06:50:34;;;;;;;16.27;9.02;;;;;;;;;;5008855;28;20449;-56
2023/10/31 06:52:59;;;;;;;14.97;9.70;;;;;;;;;;5007292;28;20028;-56
2023/10/31 06:55:24;;;;;;;12.40;7.50;;;;;;;;;;4991141;28;20444;-56
2023/10/31 06:57:49;;;;;;;15.10;6.90;;;;;;;;;;4994038;28;20032;-57
2023/10/31 07:00:15;;;;;;;11.03;7.47;;;;;;;;;;4991587;28;20084;-56
2023/10/31 07:02:40;;;;;;;14.48;6.53;;;;;;;;;;4994403;28;20501;-56
2023/10/31 07:05:05;;;;;;;10.60;6.00;;;;;;;;;;4992678;28;20034;-56
2023/10/31 07:07:30;;;;;;;10.23;5.55;;;;;;;;;;4993986;28;20503;-56
2023/10/31 07:09:55;;;;;;;11.45;7.40;;;;;;;;;;4992307;28;20022;-56
2023/10/31 07:12:21;;;;;;;10.70;6.93;;;;;;;;;;4992963;28;20018;-56
2023/10/31 07:14:46;;;;;;;8.85;6.70;;;;;;;;;;4991374;28;20461;-56
2023/10/31 07:17:11;;;;;;;9.70;6.90;;;;;;;;;;4993504;28;20045;-56
2023/10/31 07:19:36;;;;;;;12.63;6.57;;;;;;;;;;4992244;28;20821;-56
2023/10/31 07:22:02;;;;;;;13.10;7.07;;;;;;;;;;4993213;28;20072;-56
2023/10/31 07:24:27;;;;;;;11.18;7.70;;;;;;;;;;4992215;28;20019;-56
2023/10/31 07:26:53;;;;;;;14.38;9.07;;;;;;;;;;4993903;28;20019;-56
2023/10/31 07:29:18;;;;;;;13.02;9.48;;;;;;;;;;4993493;28;20369;-56
2023/10/31 07:31:43;;;;;;;20.50;12.18;;;;;;;;;;4992144;28;20037;-56
2023/10/31 07:34:10;;;;;;;14.00;9.43;;;;;;;;;;4993447;28;20046;-56
2023/10/31 07:36:36;;;;;;;14.48;9.90;;;;;;;;;;4991793;28;20379;-56
2023/10/31 07:39:02;;;;;;;15.67;11.87;;;;;;;;;;4993568;28;20037;-56
2023/10/31 07:41:27;;;;;;;13.88;12.02;;;;;;;;;;4992441;28;20038;-57
2023/10/31 07:43:52;;;;;;;14.13;10.18;;;;;;;;;;4993484;28;20429;-57
2023/10/31 07:46:18;;;;;;;12.40;10.43;;;;;;;;;;4992054;28;20048;-56
2023/10/31 07:48:44;;;;;;;13.13;11.00;;;;;;;;;;4993597;28;20021;-57
2023/10/31 07:51:09;;;;;;;14.33;10.77;;;;;;;;;;4991740;28;20455;-56
2023/10/31 07:53:34;;;;;;;17.73;12.33;;;;;;;;;;4993332;28;20019;-57
2023/10/31 07:55:59;;;;;;;12.43;9.63;;;;;;;;;;4991849;28;20445;-56
2023/10/31 07:58:24;;;;;;;10.87;9.73;;;;;;;;;;4993002;28;20085;-56
2023/10/31 08:00:49;;;;;;;11.32;8.93;;;;;;;;;;4991974;28;20522;-56
2023/10/31 08:03:15;;;;;;;8.95;7.97;;;;;;;;;;4993367;28;20038;-56
2023/10/31 08:05:40;;;;;;;7.93;7.13;;;;;;;;;;4991115;28;20117;-56
2023/10/31 08:08:05;;;;;;;12.10;7.53;;;;;;;;;;5005407;28;20025;-56
2023/10/31 08:10:30;;;;;;;11.88;9.02;;;;;;;;;;5011234;28;20056;-56
2023/10/31 08:12:55;;;;;;;7.95;7.15;;;;;;;;;;5012026;28;20499;-57
2023/10/31 08:15:21;;;;;;;13.50;7.82;;;;;;;;;;5011219;28;20487;-57
2023/10/31 08:17:46;;;;;;;9.83;7.10;;;;;;;;;;5012427;28;20022;-57
2023/10/31 08:20:13;;;;;;;11.87;7.57;;;;;;;;;;5010785;28;20453;-57
2023/10/31 08:22:38;;;;;;;11.93;7.13;;;;;;;;;;5012620;28;20456;-56
2023/10/31 08:25:04;;;;;;;8.30;7.50;;;;;;;;;;5011046;28;20069;-56
2023/10/31 08:27:29;;;;;;;8.48;6.78;;;;;;;;;;5012262;28;20022;-56
2023/10/31 08:29:54;;;;;;;8.27;7.07;;;;;;;;;;5010707;28;20049;-57
2023/10/31 08:32:19;;;;;;;9.97;6.83;;;;;;;;;;5012325;28;20014;-56
2023/10/31 08:34:44;;;;;;;13.57;7.25;;;;;;;;;;5010628;28;20464;-57
2023/10/31 08:37:10;;;;;;;10.67;8.97;;;;;;;;;;5011726;28;20028;-55
2023/10/31 08:39:35;;;;;;;10.13;8.10;;;;;;;;;;5010971;28;20421;-55
2023/10/31 08:42:00;;;;;;;10.93;9.18;;;;;;;;;;5011974;28;20093;-55
2023/10/31 08:44:25;;;;;;;17.13;9.57;;;;;;;;;;5011251;28;20488;-50
2023/10/31 08:46:50;;;;;;;19.27;9.47;;;;;;;;;;5012022;28;20971;-56
2023/10/31 08:49:16;;;;;;;12.25;8.73;;;;;;;;;;5011764;28;20026;-55
2023/10/31 08:51:41;;;;;;;13.43;8.45;;;;;;;;;;5010121;28;20041;-56
2023/10/31 08:54:07;;;;;;;10.80;9.70;;;;;;;;;;5011648;28;20014;-56
2023/10/31 08:56:32;;;;;;;11.35;8.57;;;;;;;;;;5010636;28;20046;-55
2023/10/31 08:58:57;;;;;;;17.48;9.18;;;;;;;;;;5011367;28;20022;-55
2023/10/31 09:01:22;;;;;;;11.20;10.20;;;;;;;;;;5010220;28;20034;-55
2023/10/31 09:03:48;;;;;;;17.80;14.63;;;;;;;;;;5010626;28;20022;-56
2023/10/31 09:06:13;;;;;;;12.60;9.07;;;;;;;;;;5009652;28;21038;-57
2023/10/31 09:08:38;;;;;;;13.20;11.88;;;;;;;;;;5012062;28;20016;-56
2023/10/31 09:11:04;;;;;;;10.52;8.50;;;;;;;;;;5010010;28;20030;-55
2023/10/31 09:13:29;;;;;;;9.90;8.70;;;;;;;;;;5011307;28;20373;-55
2023/10/31 09:15:54;;;;;;;21.27;9.47;;;;;;;;;;5009506;28;20104;-55
2023/10/31 09:18:19;;;;;;;14.13;12.10;;;;;;;;;;5011504;28;20026;-56
2023/10/31 09:20:45;;;;;;;12.20;10.87;;;;;;;;;;5009640;28;20044;-56
2023/10/31 09:23:10;;;;;;;11.55;10.40;;;;;;;;;;5011306;28;20500;-55
2023/10/31 09:25:35;;;;;;;14.57;11.88;;;;;;;;;;5010146;28;20033;-56
2023/10/31 09:28:00;;;;;;;18.20;14.00;;;;;;;;;;5010711;28;20029;-57
2023/10/31 09:30:26;;;;;;;17.42;12.30;;;;;;;;;;5010165;28;20514;-56
2023/10/31 09:32:52;;;;;;;14.40;11.93;;;;;;;;;;5011477;28;20420;-56
2023/10/31 09:35:17;;;;;;;14.27;11.38;;;;;;;;;;5008951;28;20129;-55
2023/10/31 09:37:43;;;;;;;16.90;12.77;;;;;;;;;;5011429;28;20029;-56
2023/10/31 09:40:08;;;;;;;12.63;11.40;;;;;;;;;;5009641;28;20544;-56
2023/10/31 09:42:34;;;;;;;19.98;12.20;;;;;;;;;;5011038;28;20129;-60
2023/10/31 09:44:59;;;;;;;15.87;11.67;;;;;;;;;;5009338;28;20490;-56
2023/10/31 09:47:24;;;;;;;20.13;12.73;;;;;;;;;;5011038;28;20456;-56
2023/10/31 09:49:49;;;;;;;14.10;11.05;;;;;;;;;;5009333;28;20113;-55
2023/10/31 09:52:15;;;;;;;11.65;10.38;;;;;;;;;;5010772;28;20014;-56
2023/10/31 09:54:41;;;;;;;15.07;12.43;;;;;;;;;;5009631;28;20018;-55
2023/10/31 09:57:06;;;;;;;10.60;9.57;;;;;;;;;;5010373;28;20872;-56
2023/10/31 09:59:31;;;;;;;14.00;11.17;;;;;;;;;;5009824;28;20106;-56
2023/10/31 10:01:56;;;;;;;13.93;10.13;;;;;;;;;;5011165;28;20025;-56
2023/10/31 10:04:21;;;;;;;10.98;9.88;;;;;;;;;;5010703;28;20421;-56
2023/10/31 10:07:02;;;;;;;9.87;8.57;;;;;;;;;;5009316;28;20041;-56
2023/10/31 10:09:27;;;;;;;10.18;8.77;;;;;;;;;;5009800;28;20763;-55
2023/10/31 10:11:53;;;;;;;10.07;8.55;;;;;;;;;;5010607;28;20100;-57
2023/10/31 10:14:18;;;;;;;12.65;9.90;;;;;;;;;;5010670;28;20914;-56
2023/10/31 10:16:43;;;;;;;12.53;8.80;;;;;;;;;;5009354;28;20451;-56
2023/10/31 10:19:19;;;;;;;8.93;8.17;;;;;;;;;;5010413;28;20057;-57
2023/10/31 10:22:02;;;;;;;11.50;8.52;;;;;;;;;;5009386;28;20571;-57
2023/10/31 10:24:27;;;;;;;9.18;7.95;;;;;;;;;;5009656;28;20077;-56
2023/10/31 10:26:53;;;;;;;8.03;7.23;;;;;;;;;;5010327;28;20578;-57
2023/10/31 10:29:18;;;;;;;13.38;7.45;;;;;;;;;;5014316;28;20022;-62
2023/10/31 10:31:44;;;;;;;11.55;7.60;;;;;;;;;;5011993;28;20030;-57
2023/10/31 10:34:09;;;;;;;6.35;5.30;;;;;;;;;;5012009;28;20038;-57
2023/10/31 10:36:35;;;;;;;6.50;5.90;;;;;;;;;;5011356;28;20099;-57
2023/10/31 10:39:00;;;;;;;6.32;5.72;;;;;;;;;;5013846;28;20029;-57
2023/10/31 10:41:26;;;;;;;5.20;4.80;;;;;;;;;;5012697;28;20104;-57
2023/10/31 10:43:56;;;;;;;6.00;4.65;;;;;;;;;;5014368;28;20504;-59
2023/10/31 10:46:23;;;;;;;6.57;4.53;;;;;;;;;;5012794;28;20042;-57
2023/10/31 10:48:49;;;;;;;9.48;4.22;;;;;;;;;;5013959;28;20461;-57
2023/10/31 10:51:17;;;;;;;5.53;3.80;;;;;;;;;;5012522;28;20034;-57
2023/10/31 10:53:52;;;;;;;12.80;5.65;;;;;;;;;;5014206;28;20635;-56
2023/10/31 10:56:19;;;;;;;5.30;4.45;;;;;;;;;;5012098;28;20092;-57
2023/10/31 10:58:49;;;;;;;5.72;4.85;;;;;;;;;;5014253;28;20022;-57
2023/10/31 11:01:17;;;;;;;5.88;4.78;;;;;;;;;;5012562;28;20029;-57
2023/10/31 11:03:44;;;;;;;5.82;5.18;;;;;;;;;;5013853;28;20029;-56
2023/10/31 11:06:09;;;;;;;6.53;5.90;;;;;;;;;;5012281;28;20030;-57
2023/10/31 11:08:35;;;;;;;12.45;6.82;;;;;;;;;;5014271;28;20017;-57
2023/10/31 11:11:00;;;;;;;7.93;6.35;;;;;;;;;;5011612;28;20053;-57
2023/10/31 11:13:26;;;;;;;6.65;5.68;;;;;;;;;;5013748;28;20215;-57
2023/10/31 11:15:52;;;;;;;6.28;5.07;;;;;;;;;;5012382;28;20026;-56
2023/10/31 11:18:17;;;;;;;5.50;4.97;;;;;;;;;;5013297;28;20021;-56
2023/10/31 11:20:43;;;;;;;7.65;3.00;;;;;;;;;;5012252;28;20034;-57
2023/10/31 11:23:08;;;;;;;6.78;3.67;;;;;;;;;;5013603;28;20052;-65
2023/10/31 11:25:33;;;;;;;3.50;3.20;;;;;;;;;;5012110;28;20045;-57
2023/10/31 11:28:12;;;;;;;4.47;4.15;;;;;;;;;;5013298;28;20061;-57
2023/10/31 11:30:37;;;;;;;7.47;3.80;;;;;;;;;;5011898;28;20025;-57
2023/10/31 11:33:03;;;;;;;9.37;5.33;;;;;;;;;;5012888;28;20025;-57
2023/10/31 11:35:33;;;;;;;4.40;3.47;;;;;;;;;;5011842;28;20050;-57
2023/10/31 11:38:03;;;;;;;3.65;3.35;;;;;;;;;;5013424;28;20018;-57
2023/10/31 11:40:29;;;;;;;2.95;2.70;;;;;;;;;;5009273;28;20133;-56
2023/10/31 11:42:58;;;;;;;6.10;3.43;;;;;;;;;;5013150;28;20093;-56
2023/10/31 11:45:23;;;;;;;;;;;;;;;;;;5012514;28;20030;-57
2023/10/31 11:47:49;;;;;;;6.57;4.30;;;;;;;;;;5012783;28;19909;-57
2023/10/31 11:50:15;;;;;;;6.18;2.90;;;;;;;;;;5011477;28;20022;-57
2023/10/31 11:52:40;;;;;;;4.72;4.10;;;;;;;;;;5013025;28;20116;-56
2023/10/31 11:55:08;;;;;;;3.53;2.80;;;;;;;;;;5010843;28;20516;-57
2023/10/31 11:57:33;;;;;;;;;;;;;;;;;;5013802;28;20436;-57
2023/10/31 11:59:59;;;;;;;4.55;4.10;;;;;;;;;;5011250;28;19944;-57
2023/10/31 12:02:25;;;;;;;6.05;2.78;;;;;;;;;;5012566;28;20029;-56
2023/10/31 12:04:50;;;;;;;6.55;3.10;;;;;;;;;;5007892;28;20497;-57
2023/10/31 12:07:15;;;;;;;3.97;2.75;;;;;;;;;;5012352;28;20029;-57
2023/10/31 12:09:47;;;;;;;4.70;2.90;;;;;;;;;;5010432;28;20363;-56
2023/10/31 12:12:12;;;;;;;6.07;3.08;;;;;;;;;;5012230;28;20032;-56
2023/10/31 12:14:38;;;;;;;7.40;3.85;;;;;;;;;;5011042;28;20022;-56
2023/10/31 12:17:06;;;;;;;6.90;3.45;;;;;;;;;;5011825;28;20030;-57
2023/10/31 12:19:32;;;;;;;5.07;3.20;;;;;;;;;;5010065;28;20485;-56
2023/10/31 12:21:57;;;;;;;5.82;3.00;;;;;;;;;;5012338;28;20029;-56
2023/10/31 12:24:23;;;;;;;7.67;3.43;;;;;;;;;;5012229;28;20022;-57
2023/10/31 12:26:48;;;;;;;3.20;2.65;;;;;;;;;;5011147;28;20097;-56
2023/10/31 12:29:14;;;;;;;6.57;3.53;;;;;;;;;;5012374;28;20109;-56
2023/10/31 12:31:42;;;;;;;5.53;3.63;;;;;;;;;;5010466;28;20034;-57
2023/10/31 12:34:07;;;;;;;5.85;3.97;;;;;;;;;;5011714;28;20048;-57
2023/10/31 12:36:33;;;;;;;14.30;5.18;;;;;;;;;;5008387;28;20039;-57
2023/10/31 12:38:58;;;;;;;5.32;3.40;;;;;;;;;;5011297;28;20025;-62
2023/10/31 12:41:24;;;;;;;4.10;3.58;;;;;;;;;;5010377;28;20042;-57
2023/10/31 12:43:49;;;;;;;5.85;5.22;;;;;;;;;;5012025;28;20014;-56
2023/10/31 12:46:23;;;;;;;8.47;6.17;;;;;;;;;;5010372;28;20030;-57
2023/10/31 12:48:49;;;;;;;12.55;8.75;;;;;;;;;;5012092;28;20409;-56
2023/10/31 12:51:14;;;;;;;11.30;6.25;;;;;;;;;;5010219;28;20073;-57
2023/10/31 12:53:39;;;;;;;9.70;5.30;;;;;;;;;;5012162;28;20097;-57
2023/10/31 12:56:04;;;;;;;4.50;3.50;;;;;;;;;;5010041;28;20501;-57
2023/10/31 12:58:29;;;;;;;4.38;3.92;;;;;;;;;;5011808;28;20030;-56
2023/10/31 13:00:55;;;;;;;4.65;2.97;;;;;;;;;;5010302;28;20132;-56
2023/10/31 13:03:21;;;;;;;5.07;3.33;;;;;;;;;;5011840;28;20465;-57
2023/10/31 13:05:46;;;;;;;4.60;3.17;;;;;;;;;;5010457;28;20117;-57
2023/10/31 13:08:15;;;;;;;4.68;3.03;;;;;;;;;;5011588;28;20109;-57
2023/10/31 13:10:40;;;;;;;5.70;3.72;;;;;;;;;;5009885;28;20030;-57
2023/10/31 13:13:05;;;;;;;4.75;2.30;;;;;;;;;;5011331;28;20022;-57
2023/10/31 13:15:30;;;;;;;5.30;2.70;;;;;;;;;;5009994;28;20033;-57
2023/10/31 13:17:57;;;;;;;6.53;3.03;;;;;;;;;;5011391;28;20017;-57
2023/10/31 13:20:22;;;;;;;5.18;3.03;;;;;;;;;;5010170;28;20513;-56
2023/10/31 13:22:47;;;;;;;7.18;3.17;;;;;;;;;;5011748;28;20129;-56
2023/10/31 13:25:13;;;;;;;5.00;2.35;;;;;;;;;;5009503;28;20044;-56
2023/10/31 13:27:43;;;;;;;4.03;1.88;;;;;;;;;;5011562;28;20022;-56
2023/10/31 13:30:08;;;;;;;1.90;1.80;;;;;;;;;;5009925;28;20026;-57
2023/10/31 13:32:35;;;;;;;7.05;2.05;;;;;;;;;;5010845;28;20025;-57
2023/10/31 13:35:00;;;;;;;2.45;2.25;;;;;;;;;;5009192;28;20044;-57
2023/10/31 13:37:25;;;;;;;3.65;2.50;;;;;;;;;;5011370;28;20435;-57
2023/10/31 13:39:50;;;;;;;4.53;2.17;;;;;;;;;;5009520;28;20037;-57
2023/10/31 13:42:16;;;;;;;2.88;2.13;;;;;;;;;;5010864;28;20022;-57
2023/10/31 13:44:41;;;;;;;19.48;3.30;;;;;;;;;;5009752;28;20034;-57
2023/10/31 13:47:06;;;;;;;4.03;3.03;;;;;;;;;;5010463;28;20060;-60
2023/10/31 13:49:31;;;;;;;4.60;2.45;;;;;;;;;;5009921;28;20029;-56
2023/10/31 13:51:56;;;;;;;5.00;2.30;;;;;;;;;;5011061;28;20010;-57
2023/10/31 13:54:22;;;;;;;6.20;2.25;;;;;;;;;;5010540;28;20511;-56
2023/10/31 13:56:47;;;;;;;2.10;1.90;;;;;;;;;;5009483;28;20030;-56
2023/10/31 13:59:14;;;;;;;4.72;2.45;;;;;;;;;;5010845;28;20440;-56
2023/10/31 14:01:39;;;;;;;2.67;2.10;;;;;;;;;;5009250;28;20033;-57
2023/10/31 14:04:04;;;;;;;5.00;3.40;;;;;;;;;;5010165;28;20033;-57
2023/10/31 14:06:30;;;;;;;6.85;3.05;;;;;;;;;;5009406;28;20107;-57
2023/10/31 14:08:55;;;;;;;4.10;3.75;;;;;;;;;;5009342;28;20101;-57
2023/10/31 14:11:20;;;;;;;2.88;2.53;;;;;;;;;;5009442;28;20041;-57
2023/10/31 14:13:45;;;;;;;7.63;5.03;;;;;;;;;;5011083;28;20097;-56
2023/10/31 14:16:11;;;;;;;2.75;2.53;;;;;;;;;;5008644;28;21202;-56
2023/10/31 14:18:37;;;;;;;4.15;2.55;;;;;;;;;;5011191;28;20030;-56
2023/10/31 14:21:02;;;;;;;3.33;2.75;;;;;;;;;;5009272;28;20100;-57
2023/10/31 14:23:27;;;;;;;3.10;2.90;;;;;;;;;;5010525;28;20018;-56